createdAt,value
2017-06-19T00:12:25.972Z,0.80
2017-06-19T00:14:55.431Z,1.00
2017-06-19T00:17:24.671Z,0.90
2017-06-19T00:19:54.285Z,1.27
2017-06-19T00:22:23.704Z,1.47
2017-06-19T00:24:52.810Z,1.43
2017-06-19T00:27:22.526Z,1.20
2017-06-19T00:29:51.702Z,1.33
2017-06-19T00:32:20.759Z,1.60
2017-06-19T00:34:50.229Z,2.37
2017-06-19T00:37:19.922Z,1.40
2017-06-19T00:39:50.213Z,3.03
2017-06-19T00:42:19.719Z,1.13
2017-06-19T00:44:49.010Z,2.13
2017-06-19T00:47:18.682Z,1.10
2017-06-19T00:49:48.064Z,1.00
2017-06-19T00:52:18.336Z,1.40
2017-06-19T00:54:47.894Z,1.53
2017-06-19T00:57:18.096Z,0.80
2017-06-19T00:59:47.903Z,1.23
2017-06-19T01:02:17.162Z,1.10
2017-06-19T01:04:46.729Z,1.00
2017-06-19T01:07:16.040Z,0.93
2017-06-19T01:09:45.323Z,1.03
2017-06-19T01:12:14.901Z,1.10
2017-06-19T01:14:44.880Z,1.60
2017-06-19T01:17:14.199Z,1.07
2017-06-19T01:19:43.766Z,1.23
2017-06-19T01:22:12.984Z,1.10
2017-06-19T01:24:43.004Z,1.30
2017-06-19T01:27:12.215Z,1.07
2017-06-19T01:29:41.585Z,1.63
2017-06-19T01:32:10.942Z,2.73
2017-06-19T01:34:40.558Z,1.13
2017-06-19T01:37:10.238Z,2.40
2017-06-19T01:39:39.605Z,4.03
2017-06-19T01:42:08.902Z,0.87
2017-06-19T01:44:38.651Z,1.40
2017-06-19T01:47:07.990Z,2.50
2017-06-19T01:49:37.292Z,1.33
2017-06-19T01:52:06.702Z,1.47
2017-06-19T01:54:40.535Z,1.17
2017-06-19T01:57:10.889Z,1.17
2017-06-19T01:59:41.572Z,1.03
2017-06-19T02:02:11.204Z,2.93
2017-06-19T02:04:40.762Z,2.80
2017-06-19T02:07:10.452Z,2.13
2017-06-19T02:09:40.397Z,1.40
2017-06-19T02:12:10.078Z,2.03
2017-06-19T02:14:39.404Z,1.73
2017-06-19T02:17:08.868Z,1.70
2017-06-19T02:19:38.286Z,1.60
2017-06-19T02:22:07.876Z,1.60
2017-06-19T02:24:38.033Z,1.30
2017-06-19T02:27:07.267Z,1.70
2017-06-19T02:29:36.649Z,1.93
2017-06-19T02:32:05.944Z,1.63
2017-06-19T02:34:35.438Z,1.73
2017-06-19T02:37:05.036Z,1.50
2017-06-19T02:39:34.267Z,1.47
2017-06-19T02:42:03.547Z,2.63
2017-06-19T02:44:32.640Z,3.17
2017-06-19T02:47:02.584Z,5.17
2017-06-19T02:49:32.206Z,2.00
2017-06-19T02:52:02.100Z,8.30
2017-06-19T02:54:31.761Z,3.70
2017-06-19T02:57:02.887Z,3.17
2017-06-19T02:59:32.378Z,3.07
2017-06-19T03:02:01.801Z,3.07
2017-06-19T03:04:31.362Z,2.10
2017-06-19T03:07:00.963Z,4.97
2017-06-19T03:09:30.468Z,2.53
2017-06-19T03:11:59.661Z,3.00
2017-06-19T03:14:29.191Z,2.30
2017-06-19T03:16:58.662Z,3.20
2017-06-19T03:19:27.890Z,2.47
2017-06-19T03:21:57.210Z,2.10
2017-06-19T03:24:26.503Z,2.23
2017-06-19T03:26:55.805Z,4.80
2017-06-19T03:29:25.274Z,1.90
2017-06-19T03:31:54.789Z,2.30
2017-06-19T03:34:24.301Z,3.00
2017-06-19T03:36:54.591Z,2.20
2017-06-19T03:39:24.008Z,2.53
2017-06-19T03:41:53.445Z,1.67
2017-06-19T03:44:22.953Z,2.13
2017-06-19T03:46:52.710Z,1.50
2017-06-19T03:49:21.956Z,2.13
2017-06-19T03:51:51.470Z,2.60
2017-06-19T03:54:21.063Z,1.80
2017-06-19T03:56:50.639Z,2.57
2017-06-19T03:59:21.487Z,2.17
2017-06-19T04:01:51.588Z,1.70
2017-06-19T04:04:21.112Z,2.23
2017-06-19T04:06:50.574Z,1.73
2017-06-19T04:09:19.774Z,2.23
2017-06-19T04:11:49.990Z,2.27
2017-06-19T04:14:19.476Z,2.53
2017-06-19T04:16:48.747Z,2.33
2017-06-19T04:19:18.223Z,2.00
2017-06-19T04:21:47.719Z,2.50
2017-06-19T04:24:17.268Z,3.40
2017-06-19T04:26:47.013Z,3.93
2017-06-19T04:29:16.290Z,2.10
2017-06-19T04:31:45.782Z,2.20
2017-06-19T04:34:15.175Z,2.40
2017-06-19T04:36:44.747Z,2.77
2017-06-19T04:39:14.579Z,5.73
2017-06-19T04:41:44.072Z,2.23
2017-06-19T04:44:14.423Z,2.50
2017-06-19T04:46:44.361Z,4.40
2017-06-19T04:49:13.948Z,2.67
2017-06-19T04:51:43.086Z,2.63
2017-06-19T04:54:12.399Z,2.30
2017-06-19T04:56:41.869Z,2.43
2017-06-19T04:59:11.208Z,2.20
2017-06-19T05:01:41.796Z,2.37
2017-06-19T05:04:11.307Z,3.00
2017-06-19T05:06:40.494Z,2.53
2017-06-19T05:09:09.717Z,2.50
2017-06-19T05:11:38.891Z,2.53
2017-06-19T05:14:08.227Z,2.87
2017-06-19T05:16:37.893Z,2.77
2017-06-19T05:19:07.250Z,2.20
2017-06-19T05:21:36.500Z,2.57
2017-06-19T05:24:06.090Z,4.47
2017-06-19T05:26:35.708Z,4.07
2017-06-19T05:29:05.299Z,2.00
2017-06-19T05:31:34.687Z,2.40
2017-06-19T05:34:04.577Z,2.20
2017-06-19T05:36:34.031Z,2.93
2017-06-19T05:39:03.716Z,2.60
2017-06-19T05:41:33.317Z,2.40
2017-06-19T05:44:02.862Z,3.17
2017-06-19T05:46:32.181Z,2.93
2017-06-19T05:49:01.734Z,3.10
2017-06-19T05:51:31.008Z,3.87
2017-06-19T05:54:00.400Z,3.03
2017-06-19T05:56:30.111Z,3.03
2017-06-19T05:58:59.488Z,2.77
2017-06-19T06:01:29.259Z,2.87
2017-06-19T06:03:59.739Z,3.37
2017-06-19T06:06:29.024Z,3.10
2017-06-19T06:08:58.445Z,3.37
2017-06-19T06:11:27.502Z,12.60
2017-06-19T06:13:57.680Z,3.10
2017-06-19T06:16:27.368Z,3.23
2017-06-19T06:18:56.881Z,3.50
2017-06-19T06:21:26.552Z,3.60
2017-06-19T06:23:55.728Z,3.13
2017-06-19T06:26:25.331Z,3.23
2017-06-19T06:28:54.923Z,3.13
2017-06-19T06:31:24.292Z,2.80
2017-06-19T06:33:53.849Z,3.50
2017-06-19T06:36:23.543Z,3.43
2017-06-19T06:38:52.783Z,3.27
2017-06-19T06:41:22.476Z,3.47
2017-06-19T06:43:52.904Z,2.90
2017-06-19T06:46:22.374Z,3.20
2017-06-19T06:48:51.717Z,3.23
2017-06-19T06:51:21.439Z,2.80
2017-06-19T06:53:50.782Z,3.07
2017-06-19T06:56:20.341Z,2.93
2017-06-19T06:58:49.670Z,3.47
2017-06-19T07:01:19.232Z,3.60
2017-06-19T07:03:48.829Z,3.60
2017-06-19T07:06:18.904Z,3.77
2017-06-19T07:08:48.281Z,2.80
2017-06-19T07:11:17.543Z,2.90
2017-06-19T07:13:46.881Z,3.60
2017-06-19T07:16:16.078Z,2.90
2017-06-19T07:18:45.351Z,5.07
2017-06-19T07:21:14.789Z,3.40
2017-06-19T07:23:44.189Z,5.10
2017-06-19T07:26:13.660Z,3.20
2017-06-19T07:28:42.776Z,3.30
2017-06-19T07:31:11.994Z,3.10
2017-06-19T07:33:41.289Z,3.30
2017-06-19T07:36:10.988Z,3.63
2017-06-19T07:38:40.459Z,3.53
2017-06-19T07:41:09.771Z,3.17
2017-06-19T07:43:39.183Z,3.00
2017-06-19T07:46:08.621Z,2.77
2017-06-19T07:48:38.065Z,2.90
2017-06-19T07:51:07.407Z,2.77
2017-06-19T07:53:37.051Z,2.90
2017-06-19T07:56:06.555Z,3.10
2017-06-19T07:58:36.218Z,2.40
2017-06-19T08:01:05.692Z,2.80
2017-06-19T08:03:35.040Z,3.50
2017-06-19T08:06:04.909Z,3.07
2017-06-19T08:08:34.817Z,3.47
2017-06-19T08:11:04.262Z,2.93
2017-06-19T08:13:34.014Z,2.70
2017-06-19T08:16:03.708Z,3.27
2017-06-19T08:18:32.983Z,2.67
2017-06-19T08:21:02.773Z,2.83
2017-06-19T08:23:50.425Z,2.90
2017-06-19T08:26:20.219Z,2.83
2017-06-19T08:28:50.153Z,2.60
2017-06-19T08:31:19.838Z,2.93
2017-06-19T08:33:49.501Z,2.90
2017-06-19T08:36:19.242Z,2.90
2017-06-19T08:38:48.685Z,2.60
2017-06-19T08:41:18.225Z,2.90
2017-06-19T08:43:47.775Z,3.00
2017-06-19T08:46:17.575Z,2.80
2017-06-19T08:48:47.232Z,3.37
2017-06-19T08:51:16.783Z,3.37
2017-06-19T08:53:46.336Z,2.77
2017-06-19T08:56:16.322Z,2.80
2017-06-19T08:58:46.096Z,3.00
2017-06-19T09:01:15.754Z,3.03
2017-06-19T09:03:45.852Z,3.40
2017-06-19T09:06:15.223Z,3.23
2017-06-19T09:08:46.447Z,3.60
2017-06-19T09:11:15.885Z,3.73
2017-06-19T09:13:45.187Z,3.43
2017-06-19T09:16:14.689Z,3.07
2017-06-19T09:18:43.988Z,3.27
2017-06-19T09:21:13.362Z,4.17
2017-06-19T09:26:33.296Z,3.50
2017-06-19T09:29:02.879Z,4.00
2017-06-19T09:31:32.473Z,3.23
2017-06-19T09:34:02.088Z,3.73
2017-06-19T09:36:31.437Z,3.20
2017-06-19T09:39:01.183Z,3.70
2017-06-19T09:41:31.398Z,3.30
2017-06-19T09:44:00.839Z,3.20
2017-06-19T09:46:30.481Z,4.40
2017-06-19T09:49:00.344Z,3.00
2017-06-19T09:51:29.850Z,3.70
2017-06-19T09:53:59.287Z,3.10
2017-06-19T09:56:28.845Z,3.33
2017-06-19T09:58:58.311Z,5.20
2017-06-19T10:01:27.434Z,3.30
2017-06-19T10:03:56.772Z,3.67
2017-06-19T10:06:26.307Z,4.00
2017-06-19T10:08:56.795Z,3.20
2017-06-19T10:11:26.261Z,3.90
2017-06-19T10:13:55.614Z,5.03
2017-06-19T10:16:24.939Z,3.77
2017-06-19T10:18:54.394Z,3.90
2017-06-19T10:21:24.030Z,3.87
2017-06-19T10:23:53.653Z,3.73
2017-06-19T10:26:23.181Z,3.50
2017-06-19T10:28:52.591Z,3.47
2017-06-19T10:31:22.184Z,3.20
2017-06-19T10:33:51.724Z,3.93
2017-06-19T10:36:20.707Z,3.50
2017-06-19T10:38:49.894Z,3.13
2017-06-19T10:41:19.458Z,4.37
2017-06-19T10:43:48.963Z,4.00
2017-06-19T10:46:18.301Z,4.17
2017-06-19T10:48:47.566Z,3.93
2017-06-19T10:51:17.016Z,3.90
2017-06-19T10:53:46.483Z,5.13
2017-06-19T10:56:16.073Z,3.13
2017-06-19T10:58:45.306Z,3.83
2017-06-19T11:01:14.756Z,3.67
2017-06-19T11:03:44.120Z,4.20
2017-06-19T11:06:13.633Z,4.47
2017-06-19T11:08:43.326Z,5.20
2017-06-19T11:11:13.697Z,4.40
2017-06-19T11:13:43.170Z,6.63
2017-06-19T11:16:12.484Z,4.30
2017-06-19T11:18:41.821Z,4.83
2017-06-19T11:21:11.971Z,3.87
2017-06-19T11:23:41.659Z,4.47
2017-06-19T11:26:10.912Z,3.73
2017-06-19T11:28:40.352Z,5.00
2017-06-19T11:31:10.181Z,4.00
2017-06-19T11:33:39.554Z,4.23
2017-06-19T11:36:09.191Z,4.60
2017-06-19T11:38:38.628Z,4.07
2017-06-19T11:41:07.923Z,4.47
2017-06-19T11:43:37.517Z,5.00
2017-06-19T11:46:06.960Z,6.90
2017-06-19T11:48:36.400Z,5.30
2017-06-19T11:51:06.097Z,4.90
2017-06-19T11:53:36.217Z,4.63
2017-06-19T11:56:05.919Z,5.00
2017-06-19T11:58:36.211Z,4.27
2017-06-19T12:01:05.618Z,6.43
2017-06-19T12:03:34.986Z,5.60
2017-06-19T12:06:04.678Z,4.63
2017-06-19T12:08:33.898Z,5.40
2017-06-19T12:11:03.190Z,5.80
2017-06-19T12:13:33.648Z,5.97
2017-06-19T12:16:02.910Z,5.70
2017-06-19T12:18:32.228Z,6.63
2017-06-19T12:21:01.838Z,5.87
2017-06-19T12:23:31.101Z,6.20
2017-06-19T12:26:00.305Z,5.83
2017-06-19T12:28:30.764Z,5.20
2017-06-19T12:31:00.155Z,5.53
2017-06-19T12:33:29.558Z,6.07
2017-06-19T12:35:58.971Z,5.20
2017-06-19T12:38:28.287Z,5.43
2017-06-19T12:40:57.917Z,5.53
2017-06-19T12:43:27.467Z,6.23
2017-06-19T12:45:57.192Z,6.33
2017-06-19T12:48:26.363Z,6.40
2017-06-19T12:50:55.870Z,6.43
2017-06-19T12:53:25.088Z,6.50
2017-06-19T12:55:54.515Z,6.17
2017-06-19T12:58:24.299Z,7.03
2017-06-19T13:00:53.619Z,6.50
2017-06-19T13:03:23.053Z,5.77
2017-06-19T13:05:52.391Z,6.63
2017-06-19T13:08:21.948Z,6.30
2017-06-19T13:10:51.672Z,6.27
2017-06-19T13:13:21.096Z,7.17
2017-06-19T13:15:51.736Z,6.60
2017-06-19T13:18:21.318Z,6.73
2017-06-19T13:20:50.865Z,5.87
2017-06-19T13:23:20.221Z,5.60
2017-06-19T13:25:49.622Z,7.20
2017-06-19T13:28:19.047Z,6.23
2017-06-19T13:30:48.410Z,5.47
2017-06-19T13:33:17.959Z,7.07
2017-06-19T13:35:46.988Z,7.20
2017-06-19T13:38:16.900Z,6.33
2017-06-19T13:40:46.407Z,6.83
2017-06-19T13:43:15.804Z,6.40
2017-06-19T13:45:45.152Z,6.70
2017-06-19T13:48:14.844Z,7.50
2017-06-19T13:50:44.371Z,7.60
2017-06-19T13:53:13.676Z,7.30
2017-06-19T13:55:43.097Z,8.20
2017-06-19T13:58:13.253Z,6.93
2017-06-19T14:00:42.699Z,7.67
2017-06-19T14:03:12.117Z,7.50
2017-06-19T14:05:41.508Z,6.07
2017-06-19T14:08:11.155Z,6.70
2017-06-19T14:10:40.395Z,6.00
2017-06-19T14:13:09.943Z,6.43
2017-06-19T14:15:39.313Z,5.90
2017-06-19T14:18:09.708Z,5.87
2017-06-19T14:20:39.395Z,6.10
2017-06-19T14:23:08.915Z,7.43
2017-06-19T14:25:38.703Z,10.13
2017-06-19T14:28:08.977Z,7.53
2017-06-19T14:30:38.133Z,5.60
2017-06-19T14:33:07.854Z,7.07
2017-06-19T14:35:37.364Z,6.53
2017-06-19T14:38:07.008Z,7.13
2017-06-19T14:40:36.559Z,6.70
2017-06-19T14:43:05.889Z,6.33
2017-06-19T14:45:35.217Z,5.97
2017-06-19T14:48:04.552Z,5.67
2017-06-19T14:50:33.941Z,5.10
2017-06-19T14:53:03.138Z,4.90
2017-06-19T14:55:32.776Z,5.53
2017-06-19T14:58:03.135Z,5.97
2017-06-19T15:00:32.488Z,4.93
2017-06-19T15:03:01.792Z,5.57
2017-06-19T15:05:31.131Z,5.63
2017-06-19T15:08:00.719Z,5.50
2017-06-19T15:10:30.500Z,5.53
2017-06-19T15:12:59.649Z,4.50
2017-06-19T15:15:28.481Z,6.03
2017-06-19T15:17:57.663Z,4.27
2017-06-19T15:20:29.866Z,3.83
2017-06-19T15:22:59.205Z,4.57
2017-06-19T15:25:28.109Z,6.00
2017-06-19T15:27:57.343Z,3.10
2017-06-19T15:30:26.623Z,3.30
2017-06-19T15:32:56.104Z,3.20
2017-06-19T15:35:25.430Z,2.80
2017-06-19T15:37:54.900Z,3.20
2017-06-19T15:40:24.314Z,4.57
2017-06-19T15:42:53.650Z,4.33
2017-06-19T15:45:23.402Z,3.17
2017-06-19T15:47:53.136Z,2.63
2017-06-19T15:50:22.730Z,2.60
2017-06-19T15:52:52.316Z,2.83
2017-06-19T15:55:21.801Z,3.13
2017-06-19T15:57:51.197Z,2.37
2017-06-19T16:00:20.468Z,3.57
2017-06-19T16:02:50.003Z,3.40
2017-06-19T16:05:19.619Z,3.33
2017-06-19T16:07:49.295Z,4.07
2017-06-19T16:10:18.701Z,2.73
2017-06-19T16:12:48.404Z,4.07
2017-06-19T16:15:17.943Z,3.83
2017-06-19T16:17:47.440Z,1.90
2017-06-19T16:20:17.114Z,2.83
2017-06-19T16:22:47.455Z,2.67
2017-06-19T16:25:16.861Z,2.40
2017-06-19T16:27:47.183Z,2.80
2017-06-19T16:30:16.734Z,1.77
2017-06-19T16:32:45.875Z,2.50
2017-06-19T16:35:15.328Z,2.07
2017-06-19T16:37:44.804Z,5.07
2017-06-19T16:40:14.296Z,2.50
2017-06-19T16:42:43.559Z,1.93
2017-06-19T16:45:13.168Z,2.23
2017-06-19T16:47:42.596Z,2.13
2017-06-19T16:50:11.831Z,3.30
2017-06-19T16:52:41.384Z,2.60
2017-06-19T16:55:10.738Z,2.70
2017-06-19T16:57:40.183Z,4.00
2017-06-19T17:00:10.574Z,3.47
2017-06-19T17:02:40.164Z,1.70
2017-06-19T17:05:10.392Z,2.40
2017-06-19T17:07:39.812Z,2.70
2017-06-19T17:10:08.882Z,2.80
2017-06-19T17:12:38.084Z,5.70
2017-06-19T17:15:07.425Z,3.70
2017-06-19T17:17:36.526Z,2.70
2017-06-19T17:20:05.612Z,3.57
2017-06-19T17:22:34.955Z,3.90
2017-06-19T17:25:05.193Z,3.60
2017-06-19T17:27:34.423Z,5.00
2017-06-19T17:30:03.673Z,2.53
2017-06-19T17:32:33.078Z,6.20
2017-06-19T17:35:02.527Z,3.57
2017-06-19T17:37:31.692Z,2.40
2017-06-19T17:40:00.810Z,2.80
2017-06-19T17:42:29.951Z,2.00
2017-06-19T17:44:59.335Z,3.37
2017-06-19T17:47:29.507Z,3.00
2017-06-19T17:49:58.685Z,2.40
2017-06-19T17:52:27.861Z,2.50
2017-06-19T17:54:57.386Z,2.33
2017-06-19T17:57:26.828Z,2.33
2017-06-19T17:59:55.895Z,2.87
2017-06-19T18:02:25.310Z,2.90
2017-06-19T18:04:55.614Z,2.57
2017-06-19T18:07:24.623Z,3.40
2017-06-19T18:09:54.033Z,3.50
2017-06-19T18:12:23.618Z,2.70
2017-06-19T18:14:52.751Z,2.60
2017-06-19T18:17:21.902Z,2.90
2017-06-19T18:19:51.254Z,2.67
2017-06-19T18:22:20.580Z,2.53
2017-06-19T18:24:49.807Z,2.30
2017-06-19T18:27:20.242Z,2.57
2017-06-19T18:29:49.365Z,3.00
2017-06-19T18:32:18.648Z,1.90
2017-06-19T18:34:48.089Z,2.63
2017-06-19T18:37:17.148Z,2.50
2017-06-19T18:39:46.342Z,2.67
2017-06-19T18:42:15.727Z,2.73
2017-06-19T18:44:45.740Z,2.63
2017-06-19T18:47:15.074Z,2.07
2017-06-19T18:49:44.473Z,2.20
2017-06-19T18:52:13.908Z,2.37
2017-06-19T18:54:42.938Z,2.10
2017-06-19T18:57:12.293Z,1.97
2017-06-19T18:59:41.531Z,2.50
2017-06-19T19:02:10.866Z,2.77
2017-06-19T19:04:40.553Z,2.50
2017-06-19T19:07:09.981Z,2.37
2017-06-19T19:09:41.453Z,3.27
2017-06-19T19:12:10.526Z,2.90
2017-06-19T19:14:39.750Z,3.10
2017-06-19T19:17:09.025Z,2.70
2017-06-19T19:19:38.233Z,2.63
2017-06-19T19:22:07.382Z,3.07
2017-06-19T19:24:37.249Z,2.80
2017-06-19T19:27:06.777Z,4.10
2017-06-19T19:29:37.378Z,3.00
2017-06-19T19:32:07.091Z,2.10
2017-06-19T19:34:36.431Z,2.33
2017-06-19T19:37:05.200Z,2.33
2017-06-19T19:39:34.628Z,2.50
2017-06-19T19:42:03.870Z,2.17
2017-06-19T19:44:33.425Z,2.30
2017-06-19T19:47:02.694Z,2.93
2017-06-19T19:49:32.060Z,2.63
2017-06-19T19:52:02.184Z,3.33
2017-06-19T19:54:31.504Z,3.77
2017-06-19T19:57:00.973Z,3.20
2017-06-19T19:59:30.503Z,3.60
2017-06-19T20:01:59.893Z,4.80
2017-06-19T20:04:29.782Z,3.07
2017-06-19T20:06:59.611Z,3.07
2017-06-19T20:09:29.576Z,3.93
2017-06-19T20:11:59.370Z,4.40
2017-06-19T20:14:28.616Z,3.30
2017-06-19T20:16:57.949Z,4.00
2017-06-19T20:19:27.404Z,2.83
2017-06-19T20:21:56.091Z,3.80
2017-06-19T20:24:25.656Z,4.47
2017-06-19T20:26:54.881Z,3.23
2017-06-19T20:29:24.476Z,3.30
2017-06-19T20:31:55.274Z,3.60
2017-06-19T20:34:24.823Z,3.70
2017-06-19T20:36:54.198Z,4.20
2017-06-19T20:39:23.823Z,4.20
2017-06-19T20:41:53.403Z,4.30
2017-06-19T20:44:22.618Z,4.03
2017-06-19T20:46:52.093Z,3.37
2017-06-19T20:49:21.524Z,4.43
2017-06-19T20:51:50.901Z,4.60
2017-06-19T20:54:20.409Z,4.50
2017-06-19T20:56:49.761Z,4.63
2017-06-19T20:59:19.209Z,4.10
2017-06-19T21:01:48.978Z,4.00
2017-06-19T21:04:18.698Z,4.73
2017-06-19T21:06:48.172Z,5.30
2017-06-19T21:09:17.787Z,6.50
2017-06-19T21:11:47.411Z,7.30
2017-06-19T21:14:16.125Z,6.40
2017-06-19T21:16:44.986Z,4.07
2017-06-19T21:19:14.218Z,4.00
2017-06-19T21:21:43.573Z,4.60
2017-06-19T21:24:13.023Z,3.90
2017-06-19T21:26:42.459Z,4.30
2017-06-19T21:29:12.895Z,6.20
2017-06-19T21:31:42.523Z,4.50
2017-06-19T21:34:13.014Z,6.20
2017-06-19T21:36:42.777Z,4.57
2017-06-19T21:39:11.964Z,5.10
2017-06-19T21:41:41.297Z,4.07
2017-06-19T21:44:10.777Z,4.43
2017-06-19T21:46:40.199Z,4.40
2017-06-19T21:49:09.766Z,4.13
2017-06-19T21:51:39.108Z,3.80
2017-06-19T21:54:08.676Z,3.87
2017-06-19T21:56:38.316Z,3.90
2017-06-19T21:59:07.535Z,5.80
2017-06-19T22:01:36.968Z,4.00
2017-06-19T22:04:07.121Z,5.00
2017-06-19T22:06:36.624Z,3.87
2017-06-19T22:09:06.253Z,4.23
2017-06-19T22:11:35.524Z,3.40
2017-06-19T22:14:04.828Z,4.63
2017-06-19T22:16:34.107Z,3.33
2017-06-19T22:19:03.444Z,3.23
2017-06-19T22:21:38.092Z,5.03
2017-06-19T22:24:07.822Z,3.07
2017-06-19T22:26:37.465Z,3.10
2017-06-19T22:29:06.739Z,3.00
2017-06-19T22:31:36.018Z,3.13
2017-06-19T22:34:05.276Z,10.83
2017-06-19T22:36:35.896Z,3.10
2017-06-19T22:39:05.428Z,2.30
2017-06-19T22:41:34.813Z,2.87
2017-06-19T22:44:04.506Z,3.30
2017-06-19T22:46:33.902Z,2.93
2017-06-19T22:49:04.276Z,2.87
2017-06-19T22:51:33.867Z,2.30
2017-06-19T22:54:03.280Z,2.93
2017-06-19T22:56:32.885Z,2.50
2017-06-19T22:59:02.353Z,2.93
2017-06-19T23:01:31.909Z,2.40
2017-06-19T23:04:01.449Z,2.50
2017-06-19T23:06:30.794Z,3.67
2017-06-19T23:09:00.115Z,2.67
2017-06-19T23:11:29.792Z,3.83
2017-06-19T23:13:59.339Z,3.27
2017-06-19T23:16:28.402Z,3.40
2017-06-19T23:18:57.812Z,4.60
2017-06-19T23:21:27.359Z,3.20
2017-06-19T23:23:56.711Z,2.90
2017-06-19T23:26:26.220Z,3.33
2017-06-19T23:28:55.993Z,3.20
2017-06-19T23:31:26.324Z,3.47
2017-06-19T23:33:55.690Z,2.40
2017-06-19T23:36:25.402Z,2.60
2017-06-19T23:38:55.994Z,3.73
2017-06-19T23:41:25.239Z,3.30
2017-06-19T23:43:54.530Z,4.53
2017-06-19T23:46:24.022Z,3.27
2017-06-19T23:48:53.278Z,3.40
2017-06-19T23:51:22.872Z,3.00
2017-06-19T23:53:52.380Z,2.63
2017-06-19T23:56:22.647Z,4.13
2017-06-19T23:58:52.394Z,2.67
